sensor_id;sensor_type;location;lat;lon;timestamp;pressure;altitude;pressure_sealevel;temperature;humidity
8280;BME280;8335;42.646;23.380;2022-09-13T00:00:27;94230.38;;;14.93;88.00
8280;BME280;8335;42.646;23.380;2022-09-13T00:02:54;94243.19;;;14.93;88.32
8280;BME280;8335;42.646;23.380;2022-09-13T00:05:20;94233.28;;;14.88;88.48
8280;BME280;8335;42.646;23.380;2022-09-13T00:07:48;94215.91;;;14.80;88.57
8280;BME280;8335;42.646;23.380;2022-09-13T00:10:15;94234.09;;;14.89;88.81
8280;BME280;8335;42.646;23.380;2022-09-13T00:12:42;94226.63;;;14.85;88.98
8280;BME280;8335;42.646;23.380;2022-09-13T00:15:10;94222.53;;;14.83;89.13
8280;BME280;8335;42.646;23.380;2022-09-13T00:17:37;94222.34;;;14.86;89.22
8280;BME280;8335;42.646;23.380;2022-09-13T00:20:05;94214.97;;;14.81;89.41
8280;BME280;8335;42.646;23.380;2022-09-13T00:22:32;94208.22;;;14.80;89.84
8280;BME280;8335;42.646;23.380;2022-09-13T00:24:59;94205.75;;;14.79;89.76
8280;BME280;8335;42.646;23.380;2022-09-13T00:27:26;94212.59;;;14.78;90.03
8280;BME280;8335;42.646;23.380;2022-09-13T00:29:52;94201.09;;;14.73;90.12
8280;BME280;8335;42.646;23.380;2022-09-13T00:32:20;94199.91;;;14.77;90.35
8280;BME280;8335;42.646;23.380;2022-09-13T00:34:47;94206.91;;;14.75;90.56
8280;BME280;8335;42.646;23.380;2022-09-13T00:37:14;94196.66;;;14.75;90.84
8280;BME280;8335;42.646;23.380;2022-09-13T00:39:41;94190.59;;;14.76;90.73
8280;BME280;8335;42.646;23.380;2022-09-13T00:42:09;94187.34;;;14.74;91.22
8280;BME280;8335;42.646;23.380;2022-09-13T00:44:52;94179.38;;;14.66;91.13
8280;BME280;8335;42.646;23.380;2022-09-13T00:47:23;94198.41;;;14.85;90.73
8280;BME280;8335;42.646;23.380;2022-09-13T00:49:55;94198.22;;;14.89;90.91
8280;BME280;8335;42.646;23.380;2022-09-13T00:52:25;94186.56;;;14.96;90.51
8280;BME280;8335;42.646;23.380;2022-09-13T00:54:56;94178.75;;;14.97;90.47
8280;BME280;8335;42.646;23.380;2022-09-13T00:57:25;94190.19;;;15.04;90.16
8280;BME280;8335;42.646;23.380;2022-09-13T00:59:58;94191.84;;;15.05;90.28
8280;BME280;8335;42.646;23.380;2022-09-13T01:02:31;94187.66;;;15.16;90.06
8280;BME280;8335;42.646;23.380;2022-09-13T01:04:58;94197.34;;;15.23;89.61
8280;BME280;8335;42.646;23.380;2022-09-13T01:07:25;94186.50;;;15.20;89.68
8280;BME280;8335;42.646;23.380;2022-09-13T01:09:52;94189.91;;;15.31;89.11
8280;BME280;8335;42.646;23.380;2022-09-13T01:12:27;94191.41;;;15.34;89.02
8280;BME280;8335;42.646;23.380;2022-09-13T01:14:58;94186.53;;;15.31;89.15
8280;BME280;8335;42.646;23.380;2022-09-13T01:17:27;94191.19;;;15.37;88.61
8280;BME280;8335;42.646;23.380;2022-09-13T01:19:57;94181.28;;;15.44;88.16
8280;BME280;8335;42.646;23.380;2022-09-13T01:26:10;94180.00;;;15.49;87.44
8280;BME280;8335;42.646;23.380;2022-09-13T01:29:08;94178.34;;;15.48;87.90
8280;BME280;8335;42.646;23.380;2022-09-13T01:31:50;94183.03;;;15.54;87.59
8280;BME280;8335;42.646;23.380;2022-09-13T01:34:27;94169.63;;;15.51;87.53
8280;BME280;8335;42.646;23.380;2022-09-13T01:37:16;94182.56;;;15.60;87.20
8280;BME280;8335;42.646;23.380;2022-09-13T01:40:00;94182.09;;;15.55;87.37
8280;BME280;8335;42.646;23.380;2022-09-13T01:45:22;94165.88;;;15.55;87.36
8280;BME280;8335;42.646;23.380;2022-09-13T01:47:57;94171.19;;;15.64;87.09
8280;BME280;8335;42.646;23.380;2022-09-13T01:50:35;94175.72;;;15.72;86.54
8280;BME280;8335;42.646;23.380;2022-09-13T01:53:08;94168.94;;;15.71;86.66
8280;BME280;8335;42.646;23.380;2022-09-13T01:55:40;94170.94;;;15.67;86.71
8280;BME280;8335;42.646;23.380;2022-09-13T01:58:19;94168.91;;;15.60;87.49
8280;BME280;8335;42.646;23.380;2022-09-13T02:00:51;94158.31;;;15.53;87.17
8280;BME280;8335;42.646;23.380;2022-09-13T02:03:25;94166.25;;;15.61;87.05
8280;BME280;8335;42.646;23.380;2022-09-13T02:05:56;94168.91;;;15.60;86.92
8280;BME280;8335;42.646;23.380;2022-09-13T02:08:32;94169.31;;;15.66;86.82
8280;BME280;8335;42.646;23.380;2022-09-13T02:11:06;94165.66;;;15.58;86.70
8280;BME280;8335;42.646;23.380;2022-09-13T02:13:37;94173.84;;;15.63;86.75
8280;BME280;8335;42.646;23.380;2022-09-13T02:16:08;94170.34;;;15.64;86.75
8280;BME280;8335;42.646;23.380;2022-09-13T02:18:39;94164.59;;;15.60;86.74
8280;BME280;8335;42.646;23.380;2022-09-13T02:21:09;94164.28;;;15.65;86.79
8280;BME280;8335;42.646;23.380;2022-09-13T02:23:41;94138.84;;;15.39;87.06
8280;BME280;8335;42.646;23.380;2022-09-13T02:26:11;94167.06;;;15.51;87.34
8280;BME280;8335;42.646;23.380;2022-09-13T02:28:46;94167.97;;;15.50;87.29
8280;BME280;8335;42.646;23.380;2022-09-13T02:31:16;94167.88;;;15.40;87.70
8280;BME280;8335;42.646;23.380;2022-09-13T02:33:48;94169.75;;;15.38;87.77
8280;BME280;8335;42.646;23.380;2022-09-13T02:36:21;94171.34;;;15.28;88.04
8280;BME280;8335;42.646;23.380;2022-09-13T02:38:52;94173.09;;;15.27;88.22
8280;BME280;8335;42.646;23.380;2022-09-13T02:41:25;94167.97;;;15.16;88.69
8280;BME280;8335;42.646;23.380;2022-09-13T02:44:01;94166.06;;;15.07;88.98
8280;BME280;8335;42.646;23.380;2022-09-13T02:46:44;94173.63;;;14.97;89.51
8280;BME280;8335;42.646;23.380;2022-09-13T02:49:21;94175.38;;;14.97;89.73
8280;BME280;8335;42.646;23.380;2022-09-13T02:51:52;94179.69;;;14.96;89.79
8280;BME280;8335;42.646;23.380;2022-09-13T02:54:25;94171.66;;;14.90;90.12
8280;BME280;8335;42.646;23.380;2022-09-13T02:56:58;94175.97;;;14.89;90.12
8280;BME280;8335;42.646;23.380;2022-09-13T02:59:27;94171.59;;;14.78;90.37
8280;BME280;8335;42.646;23.380;2022-09-13T03:01:58;94177.56;;;14.79;90.43
8280;BME280;8335;42.646;23.380;2022-09-13T03:04:29;94166.00;;;14.73;90.67
8280;BME280;8335;42.646;23.380;2022-09-13T03:06:56;94168.31;;;14.65;91.47
8280;BME280;8335;42.646;23.380;2022-09-13T03:09:23;94178.09;;;14.60;91.65
8280;BME280;8335;42.646;23.380;2022-09-13T03:11:58;94185.78;;;14.60;91.45
8280;BME280;8335;42.646;23.380;2022-09-13T03:14:41;94169.09;;;14.54;91.61
8280;BME280;8335;42.646;23.380;2022-09-13T03:17:20;94173.16;;;14.57;91.48
8280;BME280;8335;42.646;23.380;2022-09-13T03:20:05;94172.69;;;14.52;91.40
8280;BME280;8335;42.646;23.380;2022-09-13T03:22:47;94180.50;;;14.50;91.74
8280;BME280;8335;42.646;23.380;2022-09-13T03:25:26;94176.19;;;14.51;91.61
8280;BME280;8335;42.646;23.380;2022-09-13T03:28:02;94178.97;;;14.48;92.05
8280;BME280;8335;42.646;23.380;2022-09-13T03:30:37;94149.63;;;14.28;92.38
8280;BME280;8335;42.646;23.380;2022-09-13T03:33:09;94179.28;;;14.43;92.39
8280;BME280;8335;42.646;23.380;2022-09-13T03:35:43;94173.44;;;14.41;92.27
8280;BME280;8335;42.646;23.380;2022-09-13T03:38:20;94172.97;;;14.36;92.61
8280;BME280;8335;42.646;23.380;2022-09-13T03:40:52;94167.53;;;14.28;92.75
8280;BME280;8335;42.646;23.380;2022-09-13T03:43:24;94171.75;;;14.29;92.87
8280;BME280;8335;42.646;23.380;2022-09-13T03:45:57;94140.81;;;14.08;93.09
8280;BME280;8335;42.646;23.380;2022-09-13T03:48:25;94172.66;;;14.28;92.76
8280;BME280;8335;42.646;23.380;2022-09-13T03:50:54;94173.59;;;14.27;92.71
8280;BME280;8335;42.646;23.380;2022-09-13T03:53:24;94185.59;;;14.26;92.77
8280;BME280;8335;42.646;23.380;2022-09-13T03:55:51;94176.38;;;14.24;92.52
8280;BME280;8335;42.646;23.380;2022-09-13T03:58:20;94172.41;;;14.20;92.66
8280;BME280;8335;42.646;23.380;2022-09-13T04:00:47;94180.69;;;14.23;92.61
8280;BME280;8335;42.646;23.380;2022-09-13T04:03:14;94177.78;;;14.28;92.03
8280;BME280;8335;42.646;23.380;2022-09-13T04:05:41;94182.00;;;14.29;92.07
8280;BME280;8335;42.646;23.380;2022-09-13T04:08:09;94188.94;;;14.27;91.98
8280;BME280;8335;42.646;23.380;2022-09-13T04:10:36;94181.63;;;14.22;92.05
8280;BME280;8335;42.646;23.380;2022-09-13T04:13:03;94191.63;;;14.25;91.71
8280;BME280;8335;42.646;23.380;2022-09-13T04:15:30;94176.59;;;14.21;91.93
8280;BME280;8335;42.646;23.380;2022-09-13T04:17:57;94186.50;;;14.25;91.58
8280;BME280;8335;42.646;23.380;2022-09-13T04:20:24;94179.53;;;14.27;91.44
8280;BME280;8335;42.646;23.380;2022-09-13T04:22:51;94180.97;;;14.31;91.44
8280;BME280;8335;42.646;23.380;2022-09-13T04:25:20;94177.97;;;14.62;90.51
8280;BME280;8335;42.646;23.380;2022-09-13T04:27:47;94187.75;;;15.03;87.79
8280;BME280;8335;42.646;23.380;2022-09-13T04:30:14;94184.16;;;15.17;86.33
8280;BME280;8335;42.646;23.380;2022-09-13T04:32:42;94191.63;;;15.20;85.88
8280;BME280;8335;42.646;23.380;2022-09-13T04:35:09;94164.31;;;14.96;85.86
8280;BME280;8335;42.646;23.380;2022-09-13T04:37:36;94149.00;;;14.72;86.22
8280;BME280;8335;42.646;23.380;2022-09-13T04:40:04;94194.16;;;14.97;86.53
8280;BME280;8335;42.646;23.380;2022-09-13T04:42:33;94200.78;;;15.00;86.78
8280;BME280;8335;42.646;23.380;2022-09-13T04:45:00;94204.13;;;15.35;86.84
8280;BME280;8335;42.646;23.380;2022-09-13T04:47:27;94203.31;;;16.24;83.10
8280;BME280;8335;42.646;23.380;2022-09-13T04:49:53;94211.03;;;17.51;76.50
8280;BME280;8335;42.646;23.380;2022-09-13T04:52:20;94199.22;;;18.79;70.38
8280;BME280;8335;42.646;23.380;2022-09-13T04:54:47;94221.22;;;20.33;64.48
8280;BME280;8335;42.646;23.380;2022-09-13T04:57:14;94228.94;;;21.50;58.84
8280;BME280;8335;42.646;23.380;2022-09-13T04:59:42;94232.44;;;22.61;54.43
8280;BME280;8335;42.646;23.380;2022-09-13T05:02:09;94233.34;;;23.35;51.68
8280;BME280;8335;42.646;23.380;2022-09-13T05:04:36;94242.59;;;23.70;49.70
8280;BME280;8335;42.646;23.380;2022-09-13T05:07:03;94240.16;;;23.12;50.55
8280;BME280;8335;42.646;23.380;2022-09-13T05:09:30;94233.84;;;22.47;52.32
8280;BME280;8335;42.646;23.380;2022-09-13T05:11:57;94231.66;;;21.66;55.31
8280;BME280;8335;42.646;23.380;2022-09-13T05:14:24;94227.00;;;20.91;58.07
8280;BME280;8335;42.646;23.380;2022-09-13T05:16:52;94216.94;;;19.97;61.19
8280;BME280;8335;42.646;23.380;2022-09-13T05:19:19;94221.16;;;19.51;63.15
8280;BME280;8335;42.646;23.380;2022-09-13T05:21:46;94229.50;;;19.16;64.67
8280;BME280;8335;42.646;23.380;2022-09-13T05:24:12;94226.22;;;18.85;66.04
8280;BME280;8335;42.646;23.380;2022-09-13T05:26:39;94223.44;;;18.57;67.24
8280;BME280;8335;42.646;23.380;2022-09-13T05:29:06;94224.34;;;18.27;68.90
8280;BME280;8335;42.646;23.380;2022-09-13T05:31:34;94219.84;;;18.10;69.15
8280;BME280;8335;42.646;23.380;2022-09-13T05:34:05;94223.44;;;17.88;70.83
8280;BME280;8335;42.646;23.380;2022-09-13T05:36:31;94221.25;;;17.83;71.23
8280;BME280;8335;42.646;23.380;2022-09-13T05:38:58;94220.69;;;17.80;71.27
8280;BME280;8335;42.646;23.380;2022-09-13T05:41:25;94219.88;;;17.79;71.80
8280;BME280;8335;42.646;23.380;2022-09-13T05:43:52;94226.59;;;17.71;71.70
8280;BME280;8335;42.646;23.380;2022-09-13T05:46:19;94196.72;;;17.58;71.91
8280;BME280;8335;42.646;23.380;2022-09-13T05:48:47;94215.38;;;17.72;71.67
8280;BME280;8335;42.646;23.380;2022-09-13T05:51:16;94217.97;;;17.81;71.37
8280;BME280;8335;42.646;23.380;2022-09-13T05:53:45;94219.59;;;17.73;72.18
8280;BME280;8335;42.646;23.380;2022-09-13T05:56:13;94198.34;;;17.80;70.76
8280;BME280;8335;42.646;23.380;2022-09-13T05:58:42;94222.09;;;18.63;69.13
8280;BME280;8335;42.646;23.380;2022-09-13T06:01:09;94217.25;;;19.84;64.17
8280;BME280;8335;42.646;23.380;2022-09-13T06:03:37;94223.81;;;21.14;59.27
8280;BME280;8335;42.646;23.380;2022-09-13T06:06:04;94237.75;;;22.51;53.46
8280;BME280;8335;42.646;23.380;2022-09-13T06:08:34;94242.22;;;23.89;49.24
8280;BME280;8335;42.646;23.380;2022-09-13T06:11:03;94235.34;;;24.60;46.71
8280;BME280;8335;42.646;23.380;2022-09-13T06:13:30;94234.78;;;25.65;43.78
8280;BME280;8335;42.646;23.380;2022-09-13T06:15:58;94218.66;;;26.65;40.92
8280;BME280;8335;42.646;23.380;2022-09-13T06:18:25;94245.69;;;27.72;38.45
8280;BME280;8335;42.646;23.380;2022-09-13T06:20:57;94258.03;;;28.13;36.85
8280;BME280;8335;42.646;23.380;2022-09-13T06:23:24;94268.13;;;28.98;35.77
8280;BME280;8335;42.646;23.380;2022-09-13T06:26:00;94267.28;;;29.59;34.14
8280;BME280;8335;42.646;23.380;2022-09-13T06:28:26;94270.25;;;30.29;32.97
8280;BME280;8335;42.646;23.380;2022-09-13T06:30:58;94273.28;;;30.06;33.03
8280;BME280;8335;42.646;23.380;2022-09-13T06:33:25;94280.47;;;30.70;32.67
8280;BME280;8335;42.646;23.380;2022-09-13T06:35:52;94285.03;;;30.94;32.17
8280;BME280;8335;42.646;23.380;2022-09-13T06:38:19;94282.66;;;31.56;31.59
8280;BME280;8335;42.646;23.380;2022-09-13T06:40:46;94289.47;;;32.20;30.62
8280;BME280;8335;42.646;23.380;2022-09-13T06:43:14;94278.78;;;31.90;30.25
8280;BME280;8335;42.646;23.380;2022-09-13T06:45:41;94299.56;;;31.80;30.80
8280;BME280;8335;42.646;23.380;2022-09-13T06:48:07;94288.88;;;31.93;30.32
8280;BME280;8335;42.646;23.380;2022-09-13T06:50:34;94302.13;;;32.37;29.55
8280;BME280;8335;42.646;23.380;2022-09-13T06:53:01;94312.66;;;32.55;29.03
8280;BME280;8335;42.646;23.380;2022-09-13T06:55:28;94311.03;;;32.36;29.90
8280;BME280;8335;42.646;23.380;2022-09-13T06:57:54;94309.03;;;32.06;29.64
8280;BME280;8335;42.646;23.380;2022-09-13T07:00:23;94311.28;;;31.46;30.47
8280;BME280;8335;42.646;23.380;2022-09-13T07:02:50;94312.38;;;31.32;30.46
8280;BME280;8335;42.646;23.380;2022-09-13T07:05:17;94312.06;;;31.53;30.55
8280;BME280;8335;42.646;23.380;2022-09-13T07:07:45;94311.97;;;31.66;29.54
8280;BME280;8335;42.646;23.380;2022-09-13T07:10:12;94320.25;;;31.70;29.62
8280;BME280;8335;42.646;23.380;2022-09-13T07:12:39;94313.84;;;31.91;30.35
8280;BME280;8335;42.646;23.380;2022-09-13T07:15:07;94314.13;;;31.76;29.76
8280;BME280;8335;42.646;23.380;2022-09-13T07:17:35;94324.25;;;32.04;28.85
8280;BME280;8335;42.646;23.380;2022-09-13T07:20:02;94319.97;;;31.85;29.63
8280;BME280;8335;42.646;23.380;2022-09-13T07:22:31;94322.75;;;32.40;28.42
8280;BME280;8335;42.646;23.380;2022-09-13T07:24:58;94321.06;;;32.02;28.89
8280;BME280;8335;42.646;23.380;2022-09-13T07:27:25;94324.59;;;32.39;28.47
8280;BME280;8335;42.646;23.380;2022-09-13T07:29:52;94331.38;;;32.90;28.00
8280;BME280;8335;42.646;23.380;2022-09-13T07:32:19;94331.44;;;33.02;27.24
8280;BME280;8335;42.646;23.380;2022-09-13T07:34:49;94330.22;;;33.34;27.00
8280;BME280;8335;42.646;23.380;2022-09-13T07:37:15;94327.13;;;33.37;27.53
8280;BME280;8335;42.646;23.380;2022-09-13T07:39:42;94325.81;;;33.47;27.10
8280;BME280;8335;42.646;23.380;2022-09-13T07:42:09;94325.69;;;33.83;26.87
8280;BME280;8335;42.646;23.380;2022-09-13T07:44:36;94329.41;;;33.94;26.54
8280;BME280;8335;42.646;23.380;2022-09-13T07:47:03;94336.34;;;34.30;26.09
8280;BME280;8335;42.646;23.380;2022-09-13T07:49:29;94331.03;;;34.07;26.20
8280;BME280;8335;42.646;23.380;2022-09-13T07:51:58;94338.00;;;33.29;26.68
8280;BME280;8335;42.646;23.380;2022-09-13T07:54:24;94337.22;;;32.74;27.78
8280;BME280;8335;42.646;23.380;2022-09-13T07:56:51;94339.50;;;32.89;27.00
8280;BME280;8335;42.646;23.380;2022-09-13T07:59:18;94331.63;;;32.20;27.52
8280;BME280;8335;42.646;23.380;2022-09-13T08:01:46;94337.38;;;31.09;27.77
8280;BME280;8335;42.646;23.380;2022-09-13T08:04:15;94333.66;;;30.65;28.30
8280;BME280;8335;42.646;23.380;2022-09-13T08:06:43;94335.25;;;30.80;28.34
8280;BME280;8335;42.646;23.380;2022-09-13T08:09:12;94326.81;;;29.98;29.52
8280;BME280;8335;42.646;23.380;2022-09-13T08:11:41;94331.25;;;29.58;30.10
8280;BME280;8335;42.646;23.380;2022-09-13T08:14:10;94317.41;;;29.16;30.15
8280;BME280;8335;42.646;23.380;2022-09-13T08:16:37;94317.00;;;29.19;31.12
8280;BME280;8335;42.646;23.380;2022-09-13T08:19:05;94318.84;;;29.25;31.18
8280;BME280;8335;42.646;23.380;2022-09-13T08:21:34;94324.41;;;29.77;30.22
8280;BME280;8335;42.646;23.380;2022-09-13T08:24:02;94314.50;;;29.79;30.23
8280;BME280;8335;42.646;23.380;2022-09-13T08:26:32;94313.88;;;29.57;30.44
8280;BME280;8335;42.646;23.380;2022-09-13T08:29:01;94315.78;;;29.22;31.46
8280;BME280;8335;42.646;23.380;2022-09-13T08:31:28;94317.69;;;28.87;32.00
8280;BME280;8335;42.646;23.380;2022-09-13T08:33:56;94307.03;;;28.54;32.28
8280;BME280;8335;42.646;23.380;2022-09-13T08:36:24;94295.91;;;28.17;32.88
8280;BME280;8335;42.646;23.380;2022-09-13T08:38:52;94305.75;;;28.36;32.25
8280;BME280;8335;42.646;23.380;2022-09-13T08:41:55;94312.00;;;28.42;31.35
8280;BME280;8335;42.646;23.380;2022-09-13T08:44:27;94311.84;;;28.50;31.67
8280;BME280;8335;42.646;23.380;2022-09-13T08:46:59;94315.00;;;28.73;31.08
8280;BME280;8335;42.646;23.380;2022-09-13T08:49:32;94312.69;;;28.98;29.45
8280;BME280;8335;42.646;23.380;2022-09-13T08:52:04;94277.06;;;28.69;29.81
8280;BME280;8335;42.646;23.380;2022-09-13T08:54:32;94305.06;;;28.62;29.67
8280;BME280;8335;42.646;23.380;2022-09-13T08:57:05;94304.47;;;29.01;28.78
8280;BME280;8335;42.646;23.380;2022-09-13T08:59:46;94306.78;;;29.44;29.21
8280;BME280;8335;42.646;23.380;2022-09-13T09:02:24;94304.84;;;29.79;27.71
8280;BME280;8335;42.646;23.380;2022-09-13T09:04:57;94311.28;;;29.70;27.24
8280;BME280;8335;42.646;23.380;2022-09-13T09:07:30;94308.38;;;29.39;28.00
8280;BME280;8335;42.646;23.380;2022-09-13T09:10:02;94304.44;;;28.95;28.24
8280;BME280;8335;42.646;23.380;2022-09-13T09:12:36;94299.53;;;28.44;29.20
8280;BME280;8335;42.646;23.380;2022-09-13T09:15:13;94306.03;;;28.55;29.25
8280;BME280;8335;42.646;23.380;2022-09-13T09:17:46;94306.41;;;28.45;29.29
8280;BME280;8335;42.646;23.380;2022-09-13T09:20:23;94316.72;;;28.94;28.33
8280;BME280;8335;42.646;23.380;2022-09-13T09:22:52;94320.00;;;29.03;28.26
8280;BME280;8335;42.646;23.380;2022-09-13T09:25:22;94316.59;;;29.16;28.59
8280;BME280;8335;42.646;23.380;2022-09-13T09:27:51;94308.50;;;29.11;28.30
8280;BME280;8335;42.646;23.380;2022-09-13T09:30:19;94306.72;;;29.18;28.86
8280;BME280;8335;42.646;23.380;2022-09-13T09:32:51;94298.84;;;29.18;27.99
8280;BME280;8335;42.646;23.380;2022-09-13T09:35:34;94301.84;;;29.01;28.32
8280;BME280;8335;42.646;23.380;2022-09-13T09:38:30;94294.88;;;28.81;27.78
8280;BME280;8335;42.646;23.380;2022-09-13T09:40:59;94292.22;;;29.28;27.30
8280;BME280;8335;42.646;23.380;2022-09-13T09:43:32;94286.84;;;29.96;27.77
8280;BME280;8335;42.646;23.380;2022-09-13T09:46:02;94288.22;;;30.45;27.20
8280;BME280;8335;42.646;23.380;2022-09-13T09:48:37;94292.16;;;30.81;26.18
8280;BME280;8335;42.646;23.380;2022-09-13T09:51:07;94294.34;;;30.90;26.35
8280;BME280;8335;42.646;23.380;2022-09-13T09:53:39;94296.50;;;30.42;26.91
8280;BME280;8335;42.646;23.380;2022-09-13T09:56:19;94256.56;;;29.67;27.51
8280;BME280;8335;42.646;23.380;2022-09-13T09:58:49;94277.44;;;29.08;27.33
8280;BME280;8335;42.646;23.380;2022-09-13T10:01:20;94282.09;;;28.64;28.71
8280;BME280;8335;42.646;23.380;2022-09-13T10:03:57;94271.56;;;28.16;28.33
8280;BME280;8335;42.646;23.380;2022-09-13T10:06:27;94269.47;;;28.05;28.46
8280;BME280;8335;42.646;23.380;2022-09-13T10:08:58;94269.34;;;28.55;28.36
8280;BME280;8335;42.646;23.380;2022-09-13T10:11:40;94258.00;;;28.89;27.65
8280;BME280;8335;42.646;23.380;2022-09-13T10:14:27;94252.88;;;28.61;27.81
8280;BME280;8335;42.646;23.380;2022-09-13T10:17:01;94251.50;;;28.78;28.63
8280;BME280;8335;42.646;23.380;2022-09-13T10:19:30;94250.81;;;29.04;28.53
8280;BME280;8335;42.646;23.380;2022-09-13T10:22:01;94253.84;;;29.14;28.56
8280;BME280;8335;42.646;23.380;2022-09-13T10:24:30;94256.63;;;28.93;28.11
8280;BME280;8335;42.646;23.380;2022-09-13T10:26:58;94247.78;;;28.94;28.62
8280;BME280;8335;42.646;23.380;2022-09-13T10:29:27;94253.88;;;29.34;28.43
8280;BME280;8335;42.646;23.380;2022-09-13T10:31:54;94254.75;;;29.68;28.03
8280;BME280;8335;42.646;23.380;2022-09-13T10:34:25;94251.09;;;29.95;27.66
8280;BME280;8335;42.646;23.380;2022-09-13T10:36:55;94253.69;;;30.28;26.40
8280;BME280;8335;42.646;23.380;2022-09-13T10:39:25;94259.09;;;30.47;26.77
8280;BME280;8335;42.646;23.380;2022-09-13T10:41:54;94246.22;;;30.25;27.17
8280;BME280;8335;42.646;23.380;2022-09-13T10:44:31;94246.81;;;30.07;26.87
8280;BME280;8335;42.646;23.380;2022-09-13T10:47:02;94241.81;;;30.12;26.42
8280;BME280;8335;42.646;23.380;2022-09-13T10:49:37;94241.19;;;29.97;26.53
8280;BME280;8335;42.646;23.380;2022-09-13T10:52:28;94234.34;;;29.83;26.31
8280;BME280;8335;42.646;23.380;2022-09-13T10:58:12;94232.06;;;29.14;27.88
8280;BME280;8335;42.646;23.380;2022-09-13T11:00:53;94223.78;;;29.03;27.24
8280;BME280;8335;42.646;23.380;2022-09-13T11:03:33;94228.56;;;28.87;27.67
8280;BME280;8335;42.646;23.380;2022-09-13T11:06:10;94225.72;;;28.75;28.12
8280;BME280;8335;42.646;23.380;2022-09-13T11:08:49;94212.56;;;28.20;29.06
8280;BME280;8335;42.646;23.380;2022-09-13T11:11:23;94232.34;;;27.67;30.06
8280;BME280;8335;42.646;23.380;2022-09-13T11:14:05;94221.78;;;27.32;30.56
8280;BME280;8335;42.646;23.380;2022-09-13T11:16:52;94217.00;;;27.14;30.95
8280;BME280;8335;42.646;23.380;2022-09-13T11:19:37;94213.34;;;26.73;32.42
8280;BME280;8335;42.646;23.380;2022-09-13T11:22:22;94218.34;;;26.53;32.31
8280;BME280;8335;42.646;23.380;2022-09-13T11:25:16;94206.22;;;26.45;32.48
8280;BME280;8335;42.646;23.380;2022-09-13T11:27:53;94213.94;;;26.39;31.73
8280;BME280;8335;42.646;23.380;2022-09-13T11:30:27;94204.53;;;26.08;32.20
8280;BME280;8335;42.646;23.380;2022-09-13T11:33:14;94199.22;;;26.01;33.14
8280;BME280;8335;42.646;23.380;2022-09-13T11:35:50;94190.91;;;25.83;32.61
8280;BME280;8335;42.646;23.380;2022-09-13T11:38:34;94202.97;;;25.32;32.50
8280;BME280;8335;42.646;23.380;2022-09-13T11:41:10;94193.53;;;25.31;33.25
8280;BME280;8335;42.646;23.380;2022-09-13T11:44:04;94192.81;;;25.37;33.23
8280;BME280;8335;42.646;23.380;2022-09-13T11:46:42;94194.03;;;25.26;32.73
8280;BME280;8335;42.646;23.380;2022-09-13T11:49:33;94184.22;;;25.13;32.82
8280;BME280;8335;42.646;23.380;2022-09-13T11:52:10;94174.84;;;24.81;33.25
8280;BME280;8335;42.646;23.380;2022-09-13T11:54:49;94182.59;;;24.89;32.64
8280;BME280;8335;42.646;23.380;2022-09-13T11:57:24;94184.63;;;24.79;33.64
8280;BME280;8335;42.646;23.380;2022-09-13T11:59:54;94185.47;;;24.94;34.16
8280;BME280;8335;42.646;23.380;2022-09-13T12:02:26;94183.81;;;25.02;33.96
8280;BME280;8335;42.646;23.380;2022-09-13T12:05:01;94184.78;;;25.01;32.89
8280;BME280;8335;42.646;23.380;2022-09-13T12:07:34;94185.06;;;24.83;33.49
8280;BME280;8335;42.646;23.380;2022-09-13T12:10:12;94186.91;;;24.74;34.11
8280;BME280;8335;42.646;23.380;2022-09-13T12:12:41;94189.16;;;24.77;33.78
8280;BME280;8335;42.646;23.380;2022-09-13T12:15:15;94169.44;;;24.83;33.93
8280;BME280;8335;42.646;23.380;2022-09-13T12:17:44;94175.06;;;24.94;34.44
8280;BME280;8335;42.646;23.380;2022-09-13T12:20:17;94188.03;;;24.80;32.64
8280;BME280;8335;42.646;23.380;2022-09-13T12:22:46;94173.97;;;24.66;33.21
8280;BME280;8335;42.646;23.380;2022-09-13T12:25:22;94179.22;;;24.58;33.84
8280;BME280;8335;42.646;23.380;2022-09-13T12:27:55;94175.56;;;24.67;34.05
8280;BME280;8335;42.646;23.380;2022-09-13T12:30:27;94177.56;;;24.65;34.45
8280;BME280;8335;42.646;23.380;2022-09-13T12:32:59;94176.97;;;24.78;34.91
8280;BME280;8335;42.646;23.380;2022-09-13T12:35:29;94170.94;;;24.77;34.25
8280;BME280;8335;42.646;23.380;2022-09-13T12:41:16;94178.13;;;24.75;33.57
8280;BME280;8335;42.646;23.380;2022-09-13T12:44:11;94175.75;;;24.88;33.31
8280;BME280;8335;42.646;23.380;2022-09-13T12:52:54;94165.41;;;24.49;34.00
8280;BME280;8335;42.646;23.380;2022-09-13T12:58:55;94160.31;;;24.33;34.26
8280;BME280;8335;42.646;23.380;2022-09-13T13:01:29;94161.00;;;24.19;34.11
8280;BME280;8335;42.646;23.380;2022-09-13T13:04:00;94169.16;;;24.15;34.15
8280;BME280;8335;42.646;23.380;2022-09-13T13:06:32;94162.00;;;24.17;34.57
8280;BME280;8335;42.646;23.380;2022-09-13T13:09:05;94164.25;;;24.21;35.29
8280;BME280;8335;42.646;23.380;2022-09-13T13:11:45;94149.97;;;24.16;35.22
8280;BME280;8335;42.646;23.380;2022-09-13T13:14:46;94172.56;;;24.16;34.89
8280;BME280;8335;42.646;23.380;2022-09-13T13:17:40;94173.09;;;24.03;35.13
8280;BME280;8335;42.646;23.380;2022-09-13T13:20:43;94174.41;;;23.99;35.37
8280;BME280;8335;42.646;23.380;2022-09-13T13:23:21;94171.09;;;23.74;35.99
8280;BME280;8335;42.646;23.380;2022-09-13T13:26:08;94171.28;;;23.65;36.47
8280;BME280;8335;42.646;23.380;2022-09-13T13:29:13;94171.97;;;23.34;36.50
8280;BME280;8335;42.646;23.380;2022-09-13T13:32:03;94169.03;;;23.37;36.80
8280;BME280;8335;42.646;23.380;2022-09-13T13:34:38;94166.59;;;23.44;36.51
8280;BME280;8335;42.646;23.380;2022-09-13T13:37:30;94168.03;;;23.46;37.64
8280;BME280;8335;42.646;23.380;2022-09-13T13:40:19;94178.78;;;23.43;37.02
8280;BME280;8335;42.646;23.380;2022-09-13T13:42:48;94152.66;;;23.37;36.79
8280;BME280;8335;42.646;23.380;2022-09-13T13:45:21;94152.63;;;23.28;38.55
8280;BME280;8335;42.646;23.380;2022-09-13T13:53:35;94184.81;;;22.95;38.46
8280;BME280;8335;42.646;23.380;2022-09-13T13:56:27;94180.41;;;22.79;38.45
8280;BME280;8335;42.646;23.380;2022-09-13T13:58:58;94163.00;;;22.63;38.50
8280;BME280;8335;42.646;23.380;2022-09-13T14:01:31;94168.19;;;22.63;38.21
8280;BME280;8335;42.646;23.380;2022-09-13T14:06:52;94184.75;;;22.78;38.14